createdAt,value
2017-10-03T00:00:29.444Z,0
2017-10-03T00:01:51.193Z,0
2017-10-03T00:03:12.834Z,0
2017-10-03T00:04:34.837Z,0
2017-10-03T00:05:57.153Z,0
2017-10-03T00:07:18.953Z,0
2017-10-03T00:08:40.593Z,0
2017-10-03T00:10:02.224Z,0
2017-10-03T00:11:23.872Z,0
2017-10-03T00:12:45.493Z,0
2017-10-03T00:14:07.111Z,0
2017-10-03T00:15:28.094Z,0
2017-10-03T00:16:50.226Z,0
2017-10-03T00:18:12.182Z,0
2017-10-03T00:19:33.520Z,0
2017-10-03T00:20:54.643Z,0
2017-10-03T00:22:16.617Z,0
2017-10-03T00:23:37.925Z,0
2017-10-03T00:24:59.345Z,0
2017-10-03T00:26:21.304Z,0
2017-10-03T00:27:43.272Z,0
2017-10-03T00:29:04.914Z,0
2017-10-03T00:30:26.243Z,0
2017-10-03T00:31:47.553Z,0
2017-10-03T00:33:09.544Z,0
2017-10-03T00:34:31.496Z,0
2017-10-03T00:35:53.456Z,0
2017-10-03T00:37:15.093Z,0
2017-10-03T00:38:37.413Z,0
2017-10-03T00:39:59.040Z,0
2017-10-03T00:41:19.745Z,0
2017-10-03T00:42:41.776Z,0
2017-10-03T00:44:03.741Z,0
2017-10-03T00:45:25.702Z,0
2017-10-03T00:46:47.042Z,0
2017-10-03T00:48:08.685Z,0
2017-10-03T00:49:30.373Z,0
2017-10-03T00:50:51.679Z,0
2017-10-03T00:52:13.633Z,0
2017-10-03T00:53:34.321Z,0
2017-10-03T00:54:56.613Z,0
2017-10-03T00:56:18.241Z,0
2017-10-03T00:57:39.873Z,0
2017-10-03T00:59:01.813Z,0
2017-10-03T01:00:23.486Z,0
2017-10-03T01:01:45.093Z,0
2017-10-03T01:03:06.719Z,0
2017-10-03T01:04:28.493Z,0
2017-10-03T01:05:50.886Z,0
2017-10-03T01:07:12.838Z,0
2017-10-03T01:08:34.270Z,0
2017-10-03T01:09:55.673Z,0
2017-10-03T01:11:17.882Z,0
2017-10-03T01:12:39.201Z,0
2017-10-03T01:14:00.513Z,0
2017-10-03T01:15:21.833Z,0
2017-10-03T01:16:42.490Z,0
2017-10-03T01:18:04.133Z,0
2017-10-03T01:19:25.763Z,0
2017-10-03T01:20:47.763Z,0
2017-10-03T01:22:10.052Z,0
2017-10-03T01:23:32.106Z,0
2017-10-03T01:24:53.403Z,0
2017-10-03T01:26:15.027Z,0
2017-10-03T01:27:36.986Z,0
2017-10-03T01:28:58.962Z,0
2017-10-03T01:30:19.957Z,0
2017-10-03T01:31:41.274Z,0
2017-10-03T01:33:03.572Z,0
2017-10-03T01:34:24.574Z,0
2017-10-03T01:35:46.569Z,0
2017-10-03T01:37:08.632Z,0
2017-10-03T01:38:29.640Z,0
2017-10-03T01:39:51.274Z,0
2017-10-03T01:41:13.038Z,0
2017-10-03T01:42:34.338Z,0
2017-10-03T01:43:56.313Z,0
2017-10-03T01:45:17.621Z,0
2017-10-03T01:46:39.353Z,0
2017-10-03T01:48:00.967Z,0
2017-10-03T01:49:22.691Z,0
2017-10-03T01:50:44.016Z,0
2017-10-03T01:52:05.640Z,0
2017-10-03T01:53:27.582Z,0
2017-10-03T01:54:49.571Z,0
2017-10-03T01:56:11.195Z,0
2017-10-03T01:57:33.134Z,0
2017-10-03T01:58:54.440Z,0
2017-10-03T02:00:16.384Z,0
2017-10-03T02:01:37.995Z,0
2017-10-03T02:02:59.619Z,0
2017-10-03T02:04:21.555Z,0
2017-10-03T02:05:43.223Z,0
2017-10-03T02:07:04.663Z,0
2017-10-03T02:08:26.625Z,0
2017-10-03T02:09:47.612Z,0
2017-10-03T02:11:08.902Z,0
2017-10-03T02:12:30.523Z,0
2017-10-03T02:13:52.159Z,0
2017-10-03T02:15:13.483Z,0
2017-10-03T02:16:35.259Z,0
2017-10-03T02:17:56.324Z,0
2017-10-03T02:19:17.352Z,0
2017-10-03T02:20:39.283Z,0
2017-10-03T02:22:01.564Z,0
2017-10-03T02:23:22.874Z,0
2017-10-03T02:24:44.803Z,0
2017-10-03T02:26:06.413Z,0
2017-10-03T02:27:28.433Z,0
2017-10-03T02:28:50.067Z,0
2017-10-03T02:30:12.103Z,0
2017-10-03T02:31:33.724Z,0
2017-10-03T02:32:55.374Z,0
2017-10-03T02:34:16.984Z,0
2017-10-03T02:35:38.294Z,0
2017-10-03T02:37:00.056Z,0
2017-10-03T02:38:21.693Z,0
2017-10-03T02:39:42.674Z,0
2017-10-03T02:41:04.353Z,0
2017-10-03T02:42:26.339Z,0
2017-10-03T02:43:48.268Z,0
2017-10-03T02:45:10.204Z,0
2017-10-03T02:46:31.814Z,0
2017-10-03T02:47:53.873Z,0
2017-10-03T02:49:15.543Z,0
2017-10-03T02:50:36.566Z,0
2017-10-03T02:51:58.563Z,0
2017-10-03T02:53:20.175Z,0
2017-10-03T02:54:42.106Z,0
2017-10-03T02:56:04.055Z,0
2017-10-03T02:57:25.353Z,0
2017-10-03T02:58:47.282Z,0
2017-10-03T03:00:08.594Z,0
2017-10-03T03:01:29.953Z,0
2017-10-03T03:02:51.585Z,0
2017-10-03T03:04:13.544Z,0
2017-10-03T03:05:35.498Z,0
2017-10-03T03:06:56.843Z,0
2017-10-03T03:08:18.143Z,0
2017-10-03T03:09:39.451Z,0
2017-10-03T03:11:01.415Z,0
2017-10-03T03:12:23.024Z,0
2017-10-03T03:13:44.732Z,0
2017-10-03T03:15:06.532Z,0
2017-10-03T03:16:28.183Z,0
2017-10-03T03:17:49.815Z,0
2017-10-03T03:19:11.783Z,0
2017-10-03T03:20:33.735Z,0
2017-10-03T03:21:55.041Z,0
2017-10-03T03:23:16.427Z,0
2017-10-03T03:24:38.071Z,0
2017-10-03T03:25:59.388Z,0
2017-10-03T03:27:20.800Z,0
2017-10-03T03:28:42.413Z,0
2017-10-03T03:30:03.739Z,0
2017-10-03T03:31:24.765Z,0
2017-10-03T03:32:46.083Z,0
2017-10-03T03:34:07.728Z,0
2017-10-03T03:35:29.033Z,0
2017-10-03T03:36:50.664Z,0
2017-10-03T03:38:12.643Z,0
2017-10-03T03:39:33.964Z,0
2017-10-03T03:40:54.944Z,0
2017-10-03T03:42:16.896Z,0
2017-10-03T03:43:38.523Z,0
2017-10-03T03:44:59.825Z,0
2017-10-03T03:46:20.853Z,0
2017-10-03T03:47:42.361Z,0
2017-10-03T03:49:04.343Z,0
2017-10-03T03:50:25.639Z,0
2017-10-03T03:51:47.054Z,0
2017-10-03T03:53:08.764Z,0
2017-10-03T03:54:30.381Z,0
2017-10-03T03:55:51.761Z,0
2017-10-03T03:57:13.431Z,0
2017-10-03T03:58:35.364Z,0
2017-10-03T03:59:57.041Z,0
2017-10-03T04:01:18.691Z,0
2017-10-03T04:02:39.983Z,0
2017-10-03T04:04:01.731Z,0
2017-10-03T04:05:23.116Z,0
2017-10-03T04:06:44.424Z,0
2017-10-03T04:08:06.103Z,0
2017-10-03T04:09:27.713Z,0
2017-10-03T04:10:49.044Z,0
2017-10-03T04:12:10.405Z,0
2017-10-03T04:13:31.693Z,0
2017-10-03T04:14:52.733Z,0
2017-10-03T04:16:14.366Z,0
2017-10-03T04:17:35.983Z,0
2017-10-03T04:18:57.342Z,0
2017-10-03T04:20:19.033Z,0
2017-10-03T04:21:41.062Z,0
2017-10-03T04:23:02.065Z,0
2017-10-03T04:24:23.801Z,0
2017-10-03T04:25:45.744Z,0
2017-10-03T04:27:07.381Z,0
2017-10-03T04:28:28.697Z,0
2017-10-03T04:29:49.705Z,0
2017-10-03T04:31:11.683Z,0
2017-10-03T04:32:33.000Z,0
2017-10-03T04:33:54.633Z,0
2017-10-03T04:35:16.583Z,0
2017-10-03T04:36:38.514Z,0
2017-10-03T04:38:00.493Z,0
2017-10-03T04:39:22.114Z,0
2017-10-03T04:40:43.752Z,0
2017-10-03T04:42:04.840Z,0
2017-10-03T04:43:26.484Z,0
2017-10-03T04:44:48.128Z,0
2017-10-03T04:46:09.759Z,0
2017-10-03T04:47:31.391Z,0
2017-10-03T04:49:06.954Z,0
2017-10-03T04:50:28.240Z,0
2017-10-03T04:51:49.544Z,0
2017-10-03T04:53:11.166Z,0
2017-10-03T04:54:32.504Z,0
2017-10-03T04:55:53.815Z,0
2017-10-03T04:57:15.125Z,0
2017-10-03T04:58:36.429Z,0
2017-10-03T04:59:58.084Z,0
2017-10-03T05:01:20.034Z,0
2017-10-03T05:02:41.664Z,0
2017-10-03T05:04:03.589Z,0
2017-10-03T05:05:25.234Z,0
2017-10-03T05:06:46.981Z,0
2017-10-03T05:08:08.604Z,0
2017-10-03T05:09:30.243Z,0
2017-10-03T05:10:51.865Z,0
2017-10-03T05:12:13.471Z,0
2017-10-03T05:13:34.475Z,0
2017-10-03T05:14:55.774Z,0
2017-10-03T05:16:17.763Z,0
2017-10-03T05:17:39.704Z,0
2017-10-03T05:19:00.769Z,0
2017-10-03T05:20:21.770Z,0
2017-10-03T05:21:42.762Z,0
2017-10-03T05:23:04.404Z,0
2017-10-03T05:24:26.034Z,5
2017-10-03T05:25:47.712Z,5
2017-10-03T05:27:09.707Z,5
2017-10-03T05:28:31.016Z,5
2017-10-03T05:29:52.955Z,5
2017-10-03T05:31:14.697Z,5
2017-10-03T05:32:36.343Z,10
2017-10-03T05:33:57.949Z,10
2017-10-03T05:35:19.255Z,10
2017-10-03T05:36:41.207Z,10
2017-10-03T05:38:02.881Z,15
2017-10-03T05:39:24.919Z,15
2017-10-03T05:40:46.217Z,15
2017-10-03T05:42:07.714Z,20
2017-10-03T05:43:29.034Z,20
2017-10-03T05:44:50.352Z,25
2017-10-03T05:46:11.657Z,25
2017-10-03T05:47:33.302Z,25
2017-10-03T05:48:55.594Z,30
2017-10-03T05:50:17.227Z,30
2017-10-03T05:51:38.852Z,30
2017-10-03T05:53:00.483Z,35
2017-10-03T05:54:22.773Z,40
2017-10-03T05:55:44.223Z,40
2017-10-03T05:57:05.847Z,45
2017-10-03T05:58:27.463Z,45
2017-10-03T05:59:48.787Z,50
2017-10-03T06:01:10.503Z,50
2017-10-03T06:02:32.443Z,50
2017-10-03T06:03:53.464Z,55
2017-10-03T06:05:15.753Z,55
2017-10-03T06:06:37.696Z,60
2017-10-03T06:07:58.993Z,65
2017-10-03T06:09:20.403Z,70
2017-10-03T06:10:42.008Z,80
2017-10-03T06:12:03.311Z,95
2017-10-03T06:13:24.644Z,95
2017-10-03T06:14:46.282Z,100
2017-10-03T06:16:07.900Z,100
2017-10-03T06:17:29.241Z,100
2017-10-03T06:18:50.898Z,100
2017-10-03T06:20:12.621Z,70
2017-10-03T06:21:34.275Z,65
2017-10-03T06:22:56.226Z,70
2017-10-03T06:24:17.342Z,70
2017-10-03T06:25:39.305Z,75
2017-10-03T06:27:00.923Z,75
2017-10-03T06:28:22.548Z,85
2017-10-03T06:29:43.631Z,120
2017-10-03T06:31:05.317Z,135
2017-10-03T06:32:27.290Z,140
2017-10-03T06:33:49.124Z,140
2017-10-03T06:35:10.476Z,135
2017-10-03T06:36:32.094Z,140
2017-10-03T06:37:53.446Z,165
2017-10-03T06:39:15.093Z,180
2017-10-03T06:40:36.705Z,160
2017-10-03T06:41:58.664Z,170
2017-10-03T06:43:20.273Z,135
2017-10-03T06:44:41.567Z,155
2017-10-03T06:46:02.997Z,110
2017-10-03T06:47:24.954Z,110
2017-10-03T06:48:47.064Z,115
2017-10-03T06:50:09.047Z,120
2017-10-03T06:51:30.691Z,115
2017-10-03T06:52:52.314Z,110
2017-10-03T06:54:14.295Z,145
2017-10-03T06:55:36.300Z,105
2017-10-03T06:56:58.274Z,100
2017-10-03T06:58:20.232Z,100
2017-10-03T06:59:42.283Z,100
2017-10-03T07:01:04.227Z,110
2017-10-03T07:02:26.187Z,145
2017-10-03T07:03:48.233Z,190
2017-10-03T07:05:10.294Z,160
2017-10-03T07:06:31.924Z,180
2017-10-03T07:07:53.555Z,115
2017-10-03T07:09:15.603Z,140
2017-10-03T07:10:37.652Z,195
2017-10-03T07:11:58.950Z,175
2017-10-03T07:13:20.903Z,175
2017-10-03T07:14:42.640Z,195
2017-10-03T07:16:04.314Z,190
2017-10-03T07:17:26.266Z,175
2017-10-03T07:18:48.265Z,165
2017-10-03T07:20:09.254Z,155
2017-10-03T07:21:31.333Z,140
2017-10-03T07:22:53.277Z,130
2017-10-03T07:24:15.253Z,120
2017-10-03T07:25:36.565Z,110
2017-10-03T07:26:57.904Z,115
2017-10-03T07:28:19.533Z,115
2017-10-03T07:29:41.221Z,115
2017-10-03T07:31:03.225Z,125
2017-10-03T07:32:24.890Z,135
2017-10-03T07:33:46.520Z,135
2017-10-03T07:35:07.875Z,140
2017-10-03T07:36:29.535Z,155
2017-10-03T07:37:51.257Z,160
2017-10-03T07:39:12.244Z,160
2017-10-03T07:40:34.196Z,150
2017-10-03T07:41:55.564Z,140
2017-10-03T07:43:17.859Z,145
2017-10-03T07:44:39.214Z,150
2017-10-03T07:46:01.202Z,150
2017-10-03T07:47:22.884Z,145
2017-10-03T07:48:45.225Z,145
2017-10-03T07:50:06.868Z,140
2017-10-03T07:51:28.822Z,140
2017-10-03T07:52:50.152Z,140
2017-10-03T07:54:12.294Z,140
2017-10-03T07:55:33.834Z,135
2017-10-03T07:56:55.839Z,140
2017-10-03T07:58:17.450Z,140
2017-10-03T07:59:39.762Z,140
2017-10-03T08:01:01.073Z,140
2017-10-03T08:02:22.365Z,135
2017-10-03T08:03:44.424Z,140
2017-10-03T08:05:06.410Z,140
2017-10-03T08:06:28.059Z,140
2017-10-03T08:07:49.704Z,145
2017-10-03T08:09:11.333Z,145
2017-10-03T08:10:32.955Z,145
2017-10-03T08:11:54.273Z,150
2017-10-03T08:13:16.264Z,150
2017-10-03T08:14:38.281Z,150
2017-10-03T08:16:00.274Z,155
2017-10-03T08:17:21.266Z,155
2017-10-03T08:18:43.310Z,150
2017-10-03T08:20:05.377Z,150
2017-10-03T08:21:27.014Z,150
2017-10-03T08:22:48.315Z,145
2017-10-03T08:24:10.125Z,150
2017-10-03T08:25:32.091Z,150
2017-10-03T08:26:54.092Z,150
2017-10-03T08:28:15.751Z,170
2017-10-03T08:29:37.724Z,195
2017-10-03T08:30:59.364Z,155
2017-10-03T08:32:21.293Z,135
2017-10-03T08:33:43.244Z,160
2017-10-03T08:35:05.217Z,165
2017-10-03T08:36:27.183Z,200
2017-10-03T08:37:48.801Z,220
2017-10-03T08:39:11.315Z,220
2017-10-03T08:40:33.774Z,190
2017-10-03T08:41:56.254Z,170
2017-10-03T08:43:18.129Z,150
2017-10-03T08:44:40.296Z,155
2017-10-03T08:46:02.141Z,155
2017-10-03T08:47:23.993Z,165
2017-10-03T08:48:46.155Z,175
2017-10-03T08:50:07.985Z,155
2017-10-03T08:51:30.291Z,185
2017-10-03T08:52:52.875Z,175
2017-10-03T08:54:15.024Z,185
2017-10-03T08:55:37.174Z,170
2017-10-03T08:56:58.988Z,185
2017-10-03T08:58:20.793Z,195
2017-10-03T08:59:43.273Z,165
2017-10-03T09:01:05.441Z,160
2017-10-03T09:02:27.923Z,165
2017-10-03T09:03:50.471Z,160
2017-10-03T09:05:12.620Z,185
2017-10-03T09:06:34.770Z,265
2017-10-03T09:07:56.924Z,210
2017-10-03T09:09:19.390Z,195
2017-10-03T09:10:41.525Z,240
2017-10-03T09:12:03.365Z,270
2017-10-03T09:13:25.597Z,250
2017-10-03T09:14:47.414Z,230
2017-10-03T09:16:10.257Z,205
2017-10-03T09:17:32.103Z,210
2017-10-03T09:18:53.615Z,195
2017-10-03T09:20:16.204Z,195
2017-10-03T09:21:38.464Z,185
2017-10-03T09:23:00.297Z,220
2017-10-03T09:24:22.537Z,270
2017-10-03T09:25:44.451Z,265
2017-10-03T09:27:06.934Z,285
2017-10-03T09:28:29.084Z,275
2017-10-03T09:29:51.540Z,250
2017-10-03T09:31:13.776Z,260
2017-10-03T09:32:36.064Z,275
2017-10-03T09:33:57.634Z,250
2017-10-03T09:35:19.785Z,230
2017-10-03T09:36:42.254Z,235
2017-10-03T09:38:04.083Z,265
2017-10-03T09:39:26.588Z,265
2017-10-03T09:40:48.747Z,220
2017-10-03T09:42:10.933Z,195
2017-10-03T09:43:33.465Z,255
2017-10-03T09:44:55.621Z,265
2017-10-03T09:46:18.133Z,285
2017-10-03T09:47:40.614Z,250
2017-10-03T09:49:02.453Z,205
2017-10-03T09:50:24.282Z,200
2017-10-03T09:51:46.784Z,230
2017-10-03T09:53:08.623Z,195
2017-10-03T09:54:30.764Z,195
2017-10-03T09:55:52.354Z,195
2017-10-03T09:57:14.837Z,210
2017-10-03T09:58:37.034Z,195
2017-10-03T09:59:59.707Z,200
2017-10-03T10:01:22.204Z,205
2017-10-03T10:02:44.724Z,215
2017-10-03T10:04:06.902Z,235
2017-10-03T10:05:29.434Z,235
2017-10-03T10:06:52.148Z,230
2017-10-03T10:08:13.990Z,265
2017-10-03T10:09:35.916Z,275
2017-10-03T10:10:57.767Z,270
2017-10-03T10:12:19.614Z,260
2017-10-03T10:13:41.815Z,260
2017-10-03T10:15:03.633Z,280
2017-10-03T10:16:26.115Z,330
2017-10-03T10:17:48.269Z,345
2017-10-03T10:19:10.326Z,290
2017-10-03T10:20:32.473Z,245
2017-10-03T10:21:54.683Z,205
2017-10-03T10:23:16.953Z,205
2017-10-03T10:24:39.435Z,200
2017-10-03T10:26:01.589Z,180
2017-10-03T10:27:24.112Z,190
2017-10-03T10:28:46.070Z,215
2017-10-03T10:30:07.254Z,200
2017-10-03T10:31:28.773Z,215
2017-10-03T10:32:50.965Z,280
2017-10-03T10:34:13.126Z,285
2017-10-03T10:35:34.964Z,310
2017-10-03T10:36:57.114Z,330
2017-10-03T10:38:19.583Z,295
2017-10-03T10:39:42.173Z,240
2017-10-03T10:41:04.025Z,255
2017-10-03T10:42:26.185Z,225
2017-10-03T10:43:48.356Z,235
2017-10-03T10:45:10.558Z,315
2017-10-03T10:46:32.734Z,300
2017-10-03T10:47:54.573Z,330
2017-10-03T10:49:16.094Z,315
2017-10-03T10:50:37.646Z,270
2017-10-03T10:52:00.244Z,220
2017-10-03T10:53:22.394Z,225
2017-10-03T10:54:44.237Z,225
2017-10-03T10:56:06.405Z,225
2017-10-03T10:57:28.263Z,250
2017-10-03T10:58:50.585Z,270
2017-10-03T11:00:13.043Z,275
2017-10-03T11:01:35.564Z,295
2017-10-03T11:02:58.045Z,295
2017-10-03T11:04:19.893Z,270
2017-10-03T11:05:42.362Z,245
2017-10-03T11:07:04.509Z,275
2017-10-03T11:08:26.673Z,285
2017-10-03T11:09:48.860Z,290
2017-10-03T11:11:11.503Z,290
2017-10-03T11:12:33.376Z,255
2017-10-03T11:13:55.296Z,170
2017-10-03T11:15:17.783Z,110
2017-10-03T11:16:40.184Z,115
2017-10-03T11:18:01.727Z,150
2017-10-03T11:19:23.893Z,205
2017-10-03T11:20:46.063Z,240
2017-10-03T11:22:08.788Z,255
2017-10-03T11:23:31.251Z,235
2017-10-03T11:24:53.076Z,210
2017-10-03T11:26:15.235Z,185
2017-10-03T11:27:36.768Z,175
2017-10-03T11:28:58.911Z,170
2017-10-03T11:30:21.133Z,165
2017-10-03T11:31:43.592Z,155
2017-10-03T11:33:06.229Z,150
2017-10-03T11:34:28.049Z,145
2017-10-03T11:35:50.523Z,145
2017-10-03T11:37:12.464Z,140
2017-10-03T11:38:34.644Z,140
2017-10-03T11:39:56.807Z,150
2017-10-03T11:41:18.963Z,165
2017-10-03T11:42:41.124Z,150
2017-10-03T11:44:03.424Z,145
2017-10-03T11:45:25.903Z,145
2017-10-03T11:46:47.832Z,150
2017-10-03T11:48:10.323Z,155
2017-10-03T11:49:32.514Z,150
2017-10-03T11:50:54.686Z,155
2017-10-03T11:52:16.886Z,165
2017-10-03T11:53:39.073Z,165
2017-10-03T11:55:01.643Z,175
2017-10-03T11:56:23.144Z,185
2017-10-03T11:57:45.427Z,195
2017-10-03T11:59:07.997Z,215
2017-10-03T12:00:30.483Z,215
2017-10-03T12:01:52.093Z,180
2017-10-03T12:03:14.264Z,135
2017-10-03T12:04:36.413Z,190
2017-10-03T12:05:57.959Z,215
2017-10-03T12:07:19.835Z,195
2017-10-03T12:08:42.336Z,185
2017-10-03T12:10:04.834Z,170
2017-10-03T12:11:27.662Z,165
2017-10-03T12:12:50.242Z,175
2017-10-03T12:14:12.713Z,195
2017-10-03T12:15:34.886Z,195
2017-10-03T12:16:57.022Z,175
2017-10-03T12:18:19.183Z,155
2017-10-03T12:19:41.011Z,140
2017-10-03T12:21:03.236Z,145
2017-10-03T12:22:26.120Z,145
2017-10-03T12:23:48.144Z,140
2017-10-03T12:25:10.305Z,130
2017-10-03T12:26:32.485Z,140
2017-10-03T12:27:54.729Z,145
2017-10-03T12:29:17.326Z,140
2017-10-03T12:30:39.146Z,130
2017-10-03T12:32:01.630Z,130
2017-10-03T12:33:24.128Z,130
2017-10-03T12:34:46.311Z,135
2017-10-03T12:36:08.463Z,145
2017-10-03T12:37:30.994Z,160
2017-10-03T12:38:53.521Z,190
2017-10-03T12:40:15.745Z,205
2017-10-03T12:41:37.564Z,205
2017-10-03T12:43:00.333Z,215
2017-10-03T12:44:22.476Z,220
2017-10-03T12:45:44.304Z,205
2017-10-03T12:47:06.844Z,200
2017-10-03T12:48:29.338Z,185
2017-10-03T12:49:51.829Z,170
2017-10-03T12:51:14.292Z,170
2017-10-03T12:52:36.754Z,165
2017-10-03T12:53:58.679Z,160
2017-10-03T12:55:21.193Z,155
2017-10-03T12:56:43.655Z,155
2017-10-03T12:58:05.517Z,155
2017-10-03T12:59:27.676Z,150
2017-10-03T13:00:50.164Z,150
2017-10-03T13:02:11.994Z,145
2017-10-03T13:03:34.455Z,145
2017-10-03T13:04:56.624Z,145
2017-10-03T13:06:18.755Z,145
2017-10-03T13:07:41.307Z,145
2017-10-03T13:09:03.773Z,150
2017-10-03T13:10:25.913Z,145
2017-10-03T13:11:48.395Z,150
2017-10-03T13:13:10.995Z,150
2017-10-03T13:14:33.135Z,155
2017-10-03T13:15:55.633Z,160
2017-10-03T13:17:18.424Z,165
2017-10-03T13:18:40.252Z,160
2017-10-03T13:20:02.121Z,155
2017-10-03T13:21:24.577Z,160
2017-10-03T13:22:47.102Z,175
2017-10-03T13:24:09.604Z,205
2017-10-03T13:25:32.077Z,235
2017-10-03T13:26:54.579Z,290
2017-10-03T13:28:17.042Z,315
2017-10-03T13:29:38.955Z,305
2017-10-03T13:31:00.787Z,295
2017-10-03T13:32:22.961Z,275
2017-10-03T13:33:45.604Z,255
2017-10-03T13:35:07.473Z,250
2017-10-03T13:36:29.647Z,235
2017-10-03T13:37:51.855Z,210
2017-10-03T13:39:13.762Z,175
2017-10-03T13:40:35.984Z,130
2017-10-03T13:41:58.475Z,120
2017-10-03T13:43:20.310Z,145
2017-10-03T13:44:42.553Z,165
2017-10-03T13:46:04.708Z,210
2017-10-03T13:47:27.232Z,235
2017-10-03T13:48:49.711Z,230
2017-10-03T13:50:11.935Z,185
2017-10-03T13:51:34.120Z,150
2017-10-03T13:52:56.084Z,135
2017-10-03T13:54:18.060Z,135
2017-10-03T13:55:39.675Z,135
2017-10-03T13:57:02.146Z,130
2017-10-03T13:58:24.393Z,135
2017-10-03T13:59:46.604Z,135
2017-10-03T14:01:09.297Z,130
2017-10-03T14:02:31.795Z,110
2017-10-03T14:03:54.081Z,110
2017-10-03T14:05:16.252Z,110
2017-10-03T14:06:39.065Z,120
2017-10-03T14:08:01.544Z,140
2017-10-03T14:09:23.364Z,145
2017-10-03T14:10:45.543Z,145
2017-10-03T14:12:08.232Z,140
2017-10-03T14:13:30.394Z,145
2017-10-03T14:14:52.572Z,155
2017-10-03T14:16:14.433Z,160
2017-10-03T14:17:36.965Z,165
2017-10-03T14:18:58.923Z,175
2017-10-03T14:20:20.770Z,170
2017-10-03T14:21:42.636Z,160
2017-10-03T14:23:04.774Z,155
2017-10-03T14:24:27.177Z,145
2017-10-03T14:25:49.672Z,130
2017-10-03T14:27:12.259Z,110
2017-10-03T14:28:34.701Z,85
2017-10-03T14:29:56.866Z,85
2017-10-03T14:31:19.348Z,95
2017-10-03T14:32:41.809Z,120
2017-10-03T14:34:04.394Z,135
2017-10-03T14:35:26.553Z,140
2017-10-03T14:36:49.124Z,135
2017-10-03T14:38:11.585Z,130
2017-10-03T14:39:34.394Z,130
2017-10-03T14:40:56.552Z,140
2017-10-03T14:42:18.474Z,145
2017-10-03T14:43:40.976Z,150
2017-10-03T14:45:03.841Z,165
2017-10-03T14:46:25.706Z,175
2017-10-03T14:47:48.204Z,170
2017-10-03T14:49:10.364Z,140
2017-10-03T14:50:32.874Z,120
2017-10-03T14:51:55.380Z,110
2017-10-03T14:53:17.946Z,105
2017-10-03T14:54:40.111Z,115
2017-10-03T14:56:02.966Z,115
2017-10-03T14:57:25.500Z,125
2017-10-03T14:58:47.991Z,130
2017-10-03T15:00:09.803Z,130
2017-10-03T15:01:31.689Z,130
2017-10-03T15:02:53.557Z,125
2017-10-03T15:04:16.045Z,130
2017-10-03T15:05:38.242Z,135
2017-10-03T15:07:00.085Z,135
2017-10-03T15:08:22.330Z,135
2017-10-03T15:09:44.814Z,135
2017-10-03T15:11:07.042Z,135
2017-10-03T15:12:29.236Z,130
2017-10-03T15:13:51.095Z,130
2017-10-03T15:15:12.601Z,120
2017-10-03T15:16:35.122Z,115
2017-10-03T15:17:57.646Z,110
2017-10-03T15:19:20.154Z,110
2017-10-03T15:20:42.093Z,105
2017-10-03T15:22:04.594Z,100
2017-10-03T15:23:26.837Z,100
2017-10-03T15:24:49.323Z,95
2017-10-03T15:26:11.825Z,95
2017-10-03T15:27:34.455Z,95
2017-10-03T15:28:57.282Z,90
2017-10-03T15:30:19.493Z,90
2017-10-03T15:31:41.664Z,85
2017-10-03T15:33:03.813Z,80
2017-10-03T15:34:25.994Z,80
2017-10-03T15:35:48.327Z,80
2017-10-03T15:37:10.876Z,75
2017-10-03T15:38:33.046Z,75
2017-10-03T15:39:55.587Z,80
2017-10-03T15:41:18.079Z,80
2017-10-03T15:42:40.642Z,75
2017-10-03T15:44:02.778Z,75
2017-10-03T15:45:24.627Z,75
2017-10-03T15:46:47.096Z,75
2017-10-03T15:48:08.744Z,75
2017-10-03T15:49:30.817Z,75
2017-10-03T15:50:52.811Z,75
2017-10-03T15:52:14.430Z,80
2017-10-03T15:53:36.073Z,75
2017-10-03T15:54:57.717Z,75
2017-10-03T15:56:19.697Z,75
2017-10-03T15:57:41.713Z,75
2017-10-03T15:59:03.037Z,70
2017-10-03T16:00:24.697Z,75
2017-10-03T16:01:45.683Z,80
2017-10-03T16:03:07.320Z,80
2017-10-03T16:04:28.964Z,65
2017-10-03T16:05:50.296Z,65
2017-10-03T16:07:11.613Z,65
2017-10-03T16:08:33.614Z,65
2017-10-03T16:09:55.574Z,60
2017-10-03T16:11:17.639Z,50
2017-10-03T16:12:39.596Z,40
2017-10-03T16:14:01.562Z,40
2017-10-03T16:15:23.273Z,35
2017-10-03T16:16:45.468Z,30
2017-10-03T16:18:07.113Z,30
2017-10-03T16:19:29.085Z,30
2017-10-03T16:20:51.055Z,30
2017-10-03T16:22:13.035Z,30
2017-10-03T16:23:35.250Z,30
2017-10-03T16:24:56.573Z,30
2017-10-03T16:26:18.272Z,30
2017-10-03T16:27:39.911Z,25
2017-10-03T16:29:01.931Z,30
2017-10-03T16:30:23.560Z,30
2017-10-03T16:31:45.523Z,30
2017-10-03T16:33:07.173Z,30
2017-10-03T16:34:28.497Z,25
2017-10-03T16:35:50.584Z,25
2017-10-03T16:37:12.626Z,20
2017-10-03T16:38:34.593Z,20
2017-10-03T16:39:56.583Z,20
2017-10-03T16:41:18.222Z,15
2017-10-03T16:42:39.912Z,15
2017-10-03T16:44:01.873Z,15
2017-10-03T16:45:24.350Z,15
2017-10-03T16:46:45.650Z,10
2017-10-03T16:48:06.964Z,10
2017-10-03T16:49:28.953Z,10
2017-10-03T16:50:50.923Z,5
2017-10-03T16:52:12.553Z,5
2017-10-03T16:53:33.993Z,5
2017-10-03T16:54:55.634Z,5
2017-10-03T16:56:17.306Z,5
2017-10-03T16:57:38.993Z,0
2017-10-03T16:59:00.316Z,0
2017-10-03T17:00:21.630Z,0
2017-10-03T17:01:43.623Z,0
2017-10-03T17:03:05.674Z,0
2017-10-03T17:04:27.654Z,0
2017-10-03T17:05:49.663Z,0
2017-10-03T17:07:11.301Z,0
2017-10-03T17:08:33.263Z,0
2017-10-03T17:09:54.931Z,0
2017-10-03T17:11:16.893Z,0
2017-10-03T17:12:38.593Z,0
2017-10-03T17:14:00.237Z,0
2017-10-03T17:15:21.573Z,0
2017-10-03T17:17:15.032Z,0
2017-10-03T17:18:37.037Z,0
2017-10-03T17:19:59.041Z,0
2017-10-03T17:21:20.804Z,0
2017-10-03T17:22:42.443Z,0
2017-10-03T17:24:04.096Z,0
2017-10-03T17:25:25.740Z,0
2017-10-03T17:26:47.791Z,0
2017-10-03T17:28:09.163Z,0
2017-10-03T17:29:30.513Z,0
2017-10-03T17:30:51.861Z,0
2017-10-03T17:32:13.502Z,0
2017-10-03T17:33:34.878Z,0
2017-10-03T17:34:56.565Z,0
2017-10-03T17:36:17.939Z,0
2017-10-03T17:37:39.904Z,0
2017-10-03T17:39:01.237Z,0
2017-10-03T17:40:23.378Z,0
2017-10-03T17:41:44.717Z,0
2017-10-03T17:43:06.425Z,0
2017-10-03T17:44:28.343Z,0
2017-10-03T17:45:50.010Z,0
2017-10-03T17:47:11.334Z,0
2017-10-03T17:48:33.106Z,0
2017-10-03T17:49:54.782Z,0
2017-10-03T17:51:17.124Z,0
2017-10-03T17:52:39.138Z,0
2017-10-03T17:54:00.811Z,0
2017-10-03T17:55:22.462Z,0
2017-10-03T17:56:44.895Z,0
2017-10-03T17:58:06.556Z,0
2017-10-03T17:59:28.216Z,0
2017-10-03T18:00:50.209Z,0
2017-10-03T18:02:12.313Z,0
2017-10-03T18:03:34.022Z,0
2017-10-03T18:04:55.995Z,0
2017-10-03T18:06:18.040Z,0
2017-10-03T18:07:39.737Z,0
2017-10-03T18:09:01.443Z,0
2017-10-03T18:10:23.413Z,0
2017-10-03T18:11:45.114Z,0
2017-10-03T18:13:07.124Z,0
2017-10-03T18:14:28.794Z,0
2017-10-03T18:15:50.775Z,0
2017-10-03T18:17:12.773Z,0
2017-10-03T18:18:35.037Z,0
2017-10-03T18:19:57.082Z,0
2017-10-03T18:21:18.420Z,0
2017-10-03T18:22:39.763Z,0
2017-10-03T18:24:01.105Z,0
2017-10-03T18:25:23.070Z,0
2017-10-03T18:26:44.747Z,0
2017-10-03T18:28:06.115Z,0
2017-10-03T18:29:27.755Z,0
2017-10-03T18:30:49.507Z,0
2017-10-03T18:32:11.504Z,0
2017-10-03T18:33:33.163Z,0
2017-10-03T18:34:54.233Z,0
2017-10-03T18:36:16.055Z,0
2017-10-03T18:37:38.080Z,0
2017-10-03T18:39:00.075Z,0
2017-10-03T18:40:21.894Z,0
2017-10-03T18:41:43.865Z,0
2017-10-03T18:43:05.127Z,0
2017-10-03T18:44:26.837Z,0
2017-10-03T18:45:48.890Z,0
2017-10-03T18:47:10.921Z,0
2017-10-03T18:48:32.664Z,0
2017-10-03T18:49:54.657Z,0
2017-10-03T18:51:17.061Z,0
2017-10-03T18:52:39.046Z,0
2017-10-03T18:54:00.697Z,0
2017-10-03T18:55:22.054Z,0
2017-10-03T18:56:43.730Z,0
2017-10-03T18:58:05.451Z,0
2017-10-03T18:59:27.439Z,0
2017-10-03T19:00:49.140Z,0
2017-10-03T19:02:10.809Z,0
2017-10-03T19:03:31.814Z,0
2017-10-03T19:04:53.217Z,0
2017-10-03T19:06:14.535Z,0
2017-10-03T19:07:36.303Z,0
2017-10-03T19:08:57.665Z,0
2017-10-03T19:10:19.022Z,0
2017-10-03T19:11:40.677Z,0
2017-10-03T19:13:02.364Z,0
2017-10-03T19:14:23.723Z,0
2017-10-03T19:15:45.466Z,0
2017-10-03T19:17:07.494Z,0
2017-10-03T19:18:28.934Z,0
2017-10-03T19:19:51.134Z,0
2017-10-03T19:21:13.153Z,0
2017-10-03T19:22:34.842Z,0
2017-10-03T19:23:57.283Z,0
2017-10-03T19:25:19.289Z,0
2017-10-03T19:26:40.334Z,0